ADDS METAR Data INFO
IDs: Format: Raw Decoded Include TAF

Data at: 0259 UTC 21 Oct 2017

KIZA 210255Z AUTO 31012G18KT 10SM CLR 13/07 A3000 RMK AO2
KIZA 210235Z AUTO 30014G19KT 10SM CLR 13/07 A2999 RMK AO2
KIZA 210215Z AUTO 30012G19KT 10SM CLR 13/07 A2999 RMK AO2
KIZA 210155Z AUTO 30015G20KT 10SM CLR 13/07 A2999 RMK AO2
KIZA 210135Z AUTO 30017G21KT 10SM CLR 14/07 A2998 RMK AO2
KIZA 210115Z AUTO 31016G22KT 10SM CLR 15/06 A2998 RMK AO2
KIZA 210055Z AUTO 31016G23KT 10SM CLR 16/06 A2996 RMK AO2
KIZA 210035Z AUTO 30017G25KT 10SM CLR 16/07 A2995 RMK AO2
KIZA 210015Z AUTO 30019G26KT 10SM CLR 17/07 A2995 RMK AO2
KIZA 202355Z AUTO 31015G26KT 10SM CLR 17/06 A2996 RMK AO2
KIZA 202335Z AUTO 30018G27KT 10SM CLR 18/06 A2995 RMK AO2
KIZA 202315Z AUTO 30016G26KT 10SM CLR 20/06 A2994 RMK AO2
KIZA 202255Z AUTO 29020G27KT 10SM CLR 20/07 A2994 RMK AO2
KIZA 202235Z AUTO 29017G27KT 10SM CLR 20/07 A2993 RMK AO2
KIZA 202215Z AUTO 29019G24KT 10SM CLR 21/07 A2993 RMK AO2
KIZA 202155Z AUTO 30019G30KT 10SM CLR 21/07 A2992 RMK AO2
KIZA 202135Z AUTO 29021G26KT 10SM CLR 20/08 A2992 RMK AO2
KIZA 202115Z AUTO 28021G24KT 10SM CLR 21/08 A2993 RMK AO2
KIZA 202055Z AUTO 29015G23KT 10SM CLR 21/08 A2994 RMK AO2
KIZA 202035Z AUTO 30013G23KT 10SM CLR 21/07 A2995 RMK AO2
KIZA 202015Z AUTO 30016G27KT 10SM CLR 21/08 A2995 RMK AO2
KIZA 201955Z AUTO 29020G26KT 10SM CLR 21/08 A2996 RMK AO2
KIZA 201935Z AUTO 30017G21KT 10SM CLR 21/09 A2996 RMK AO2
KIZA 201915Z AUTO 31019G24KT 10SM CLR 20/10 A2997 RMK AO2
KIZA 201855Z AUTO 30016G24KT 10SM CLR 20/10 A2996 RMK AO2
KIZA 201835Z AUTO 31017G22KT 10SM CLR 20/10 A2996 RMK AO2
KIZA 201815Z AUTO 32014G21KT 10SM CLR 18/11 A2996 RMK AO2
KIZA 201755Z AUTO 31014G20KT 10SM CLR 18/11 A2997 RMK AO2
KIZA 201735Z AUTO 31016G19KT 10SM CLR 17/11 A2998 RMK AO2
KIZA 201715Z AUTO 31014G23KT 10SM CLR 17/11 A2998 RMK AO2
KIZA 201655Z AUTO 29015G18KT 10SM SCT014 SCT018 17/12 A2998 RMK AO2
KIZA 201635Z AUTO 28014G18KT 10SM BKN012 16/12 A2999 RMK AO2
KIZA 201615Z AUTO 29017G21KT 10SM SCT013 16/12 A2999 RMK AO2
KIZA 201555Z AUTO 28013G17KT 10SM CLR 16/12 A2998 RMK AO2
KIZA 201535Z AUTO 25009KT 10SM SCT070 16/12 A2998 RMK AO2
KIZA 201515Z AUTO 26007KT 10SM CLR 15/12 A2998 RMK AO2
KIZA 201455Z AUTO 26008KT 10SM SCT065 SCT075 14/11 A2998 RMK AO2
KIZA 201435Z AUTO 25005KT 10SM BKN065 15/11 A2997 RMK AO2
KIZA 201415Z AUTO 27006KT 10SM BKN065 OVC075 14/11 A2998 RMK AO2
KIZA 201355Z AUTO 26006KT 10SM SCT049 BKN075 14/11 A2998 RMK AO2
KIZA 201335Z AUTO 28007KT 10SM SCT049 BKN075 14/11 A2998 RMK AO2
KIZA 201315Z AUTO 00000KT 10SM SCT049 BKN075 12/10 A2999 RMK AO2
KIZA 201255Z AUTO 00000KT 10SM SCT075 11/10 A2999 RMK AO2
KIZA 201235Z AUTO 00000KT 10SM CLR 12/10 A2998 RMK AO2
KIZA 201215Z AUTO 26004KT 10SM CLR 12/10 A2998 RMK AO2
KIZA 201155Z AUTO 23005KT 10SM CLR 12/10 A2997 RMK AO2
KIZA 201135Z AUTO 00000KT 10SM SCT040 13/10 A2995 RMK AO2
KIZA 201115Z AUTO 28004KT 10SM SCT038 14/10 A2997 RMK AO2
KIZA 201055Z AUTO 30004KT 10SM CLR 14/10 A2997 RMK AO2
KIZA 201035Z AUTO 30003KT 10SM SCT032 13/10 A2997 RMK AO2
KIZA 201015Z AUTO 00000KT 10SM SCT048 13/11 A2997 RMK AO2
KIZA 200955Z AUTO 21003KT 10SM BKN048 13/11 A2997 RMK AO2
KIZA 200935Z AUTO 22003KT 10SM OVC050 13/11 A2997 RMK AO2
KIZA 200915Z AUTO 19004KT 10SM OVC050 13/11 A2997 RMK AO2
KIZA 200855Z AUTO 20003KT 10SM BKN048 12/11 A2998 RMK AO2
KIZA 200835Z AUTO 18003KT 10SM OVC046 13/11 A2998 RMK AO2
KIZA 200815Z AUTO 21003KT 10SM OVC046 13/11 A2998 RMK AO2
KIZA 200755Z AUTO 16003KT 10SM OVC046 13/11 A2998 RMK AO2
KIZA 200735Z AUTO 00000KT 10SM OVC046 13/11 A2999 RMK AO2
KIZA 200715Z AUTO 00000KT 10SM OVC046 13/11 A3000 RMK AO2
KIZA 200655Z AUTO 00000KT 10SM OVC044 12/11 A3000 RMK AO2
KIZA 200635Z AUTO 00000KT 10SM BKN042 12/11 A2999 RMK AO2
KIZA 200615Z AUTO 00000KT 10SM CLR 12/11 A3000 RMK AO2
KIZA 200555Z AUTO 22003KT 10SM CLR 12/11 A3000 RMK AO2
KIZA 200535Z AUTO 20004KT 10SM CLR 12/11 A3000 RMK AO2
KIZA 200515Z AUTO 24005KT 10SM CLR 12/11 A2999 RMK AO2
KIZA 200455Z AUTO 25006KT 10SM SCT070 12/11 A2997 RMK AO2
KIZA 200435Z AUTO 25005KT 10SM OVC070 13/11 A2997 RMK AO2
KIZA 200415Z AUTO 27004KT 10SM SCT070 13/11 A2995 RMK AO2
KIZA 200355Z AUTO 00000KT 10SM CLR 13/11 A2995 RMK AO2
KIZA 200335Z AUTO 00000KT 10SM CLR 13/11 A2995 RMK AO2
KIZA 200315Z AUTO 21004KT 10SM SCT050 SCT075 13/11 A2996 RMK AO2
KIZA 200255Z AUTO 25005KT 10SM SCT050 SCT065 OVC075 14/11 A2996 RMK AO2
KIZA 200235Z AUTO 27010KT 10SM BKN070 15/11 A2995 RMK AO2
KIZA 200215Z AUTO 22005KT 10SM SCT070 15/11 A2994 RMK AO2
KIZA 200155Z AUTO 22005KT 10SM CLR 15/11 A2993 RMK AO2
KIZA 200135Z AUTO 24010KT 10SM CLR 16/11 A2993 RMK AO2
KIZA 200115Z AUTO 23007KT 10SM CLR 17/11 A2992 RMK AO2
KIZA 200055Z AUTO 21006KT 10SM SCT065 19/11 A2992 RMK AO2
KIZA 200035Z AUTO 28006KT 10SM CLR 20/10 A2993 RMK AO2
KIZA 200015Z AUTO 26004KT 10SM CLR 20/10 A2993 RMK AO2
KIZA 192355Z AUTO 29009G15KT 10SM CLR 20/09 A2993 RMK AO2
KIZA 192335Z AUTO 28012G21KT 10SM CLR 21/08 A2992 RMK AO2
KIZA 192315Z AUTO 27015G20KT 10SM CLR 21/10 A2992 RMK AO2
KIZA 192255Z AUTO 27014G21KT 10SM CLR 22/11 A2991 RMK AO2
KIZA 192235Z AUTO 27017G21KT 10SM CLR 23/11 A2991 RMK AO2
KIZA 192215Z AUTO 27013KT 10SM CLR 23/11 A2990 RMK AO2
KIZA 192155Z AUTO 27017KT 10SM CLR 22/11 A2990 RMK AO2
KIZA 192135Z AUTO 28016G21KT 10SM CLR 23/11 A2990 RMK AO2
KIZA 192115Z AUTO 27017G22KT 10SM CLR 23/10 A2990 RMK AO2
KIZA 192055Z AUTO 25014KT 10SM CLR 25/10 A2990 RMK AO2
KIZA 192035Z AUTO 26008KT 10SM CLR 23/10 A2992 RMK AO2
KIZA 192015Z AUTO 26009G14KT 10SM CLR 23/10 A2993 RMK AO2
KIZA 191955Z AUTO 23006KT 10SM CLR 21/10 A2993 RMK AO2
KIZA 191935Z AUTO 24005KT 10SM CLR 20/10 A2995 RMK AO2
KIZA 191915Z AUTO 25005KT 10SM CLR 19/09 A2996 RMK AO2
KIZA 191835Z AUTO 10SM CLR 17/08 RMK AO2 TSNO
KIZA 191815Z AUTO 23006KT 7SM CLR 17/08 A2998 RMK AO2
KIZA 191635Z AUTO 00000KT 7SM CLR 13/09 A2999 RMK AO2
KIZA 191615Z AUTO 00000KT 10SM CLR 12/09 A2998 RMK AO2
KIZA 191555Z AUTO 00000KT 7SM SCT007 11/09 A2998 RMK AO2
KIZA 191535Z AUTO 08003KT 7SM SCT007 11/09 A2998 RMK AO2
KIZA 191515Z AUTO 07003KT 7SM OVC007 11/08 A2998 RMK AO2